Alleyton, Texas
Current Conditions -  °F | °C
As of 6:55 AM on Tuesday 21 Oct 2014 (Local Time) from K66R Reporting Station
Clear Clear  
Wind Chill: 59°   Ceiling: Unl
Heat Index: 59°   Visibility: 10mi
Dew Point: 56°   Wind: 3mph
Humidity: 88%   Direction: 30°NNE
Pressure: 30.02"   Gusts: NA
Location:  29.71°N, 96.49°W
Report Text: K66R 211155Z AUTO 03003KT 10SM CLR 15/13 A3002 RMK AO2 T01520132 10167 20129
Loading
Personal Weather Stations






























Interactive Weather Map
Tropical Storm Tracking
New forecast layout! Learn more

10-Day Weather Forecast

Advertisements
Track Severe Weather on mobile